Henderson, Nevada
Current Conditions -  °F | °C
As of 12:55 AM on Friday 31 Oct 2014 (Local Time) from KBVU Reporting Station
Clear Clear  
Wind Chill: 66°   Ceiling: Unl
Heat Index: 66°   Visibility: 10mi
Dew Point: 36°   Wind: 0mph
Humidity: 32%   Direction: NA
Pressure: 29.96"   Gusts: NA
Location:  36.03°N, 114.98°W
Report Text: KBVU 310755Z AUTO 00000KT 10SM CLR 19/02 A2996 RMK AO2
Loading
Personal Weather Stations






























Interactive Weather Map
Tropical Storm Tracking
New forecast layout! Learn more

10-Day Weather Forecast

Advertisements
Track Severe Weather on mobile